34VA weather

Loudoun Hospital Center Heliport
Leesburg, Virginia, United States

Public forecast

Using degrees Fahrenheit for public forecast. Weather courtesy of forecast.io.

METAR (pilot weather report)

Closest report is Leesburg Executive Airport, 3.8 nm (7.0 km) W. Retrieved 2019/05/24 04:35 UTC (0 seconds ago):

KJYO 240435Z AUTO 26007KT 10SM CLR 22/19 A2995 RMK AO2

TAF (pilot weather forecast)

Forecast is more than 12 hours old.

Closest forecast is Washington Dulles International Airport, 8.0 nm (14.9 km) S. Retrieved 2019/05/23 00:27 UTC (1 day ago):

TAF KIAD 232324Z 2400/2506 22007KT P6SM SCT110 FM240300 26005KT P6SM VCSH SCT110 FM240600 28007KT P6SM FEW040 FM241300 32010G20KT P6SM FEW250 FM242200 33011KT P6SM FEW250 FM250200 36006KT P6SM FEW070